createdAt,value
2019-05-29T00:02:00.003Z,24.10
2019-05-29T00:04:28.255Z,24.10
2019-05-29T00:06:56.543Z,24.10
2019-05-29T00:09:25.163Z,24.10
2019-05-29T00:11:53.423Z,24.10
2019-05-29T00:14:27.135Z,24.10
2019-05-29T00:16:52.027Z,24.00
2019-05-29T00:19:20.304Z,24.00
2019-05-29T00:21:48.590Z,24.00
2019-05-29T00:24:16.843Z,24.00
2019-05-29T00:26:45.118Z,23.90
2019-05-29T00:29:13.796Z,24.00
2019-05-29T00:31:42.239Z,24.00
2019-05-29T00:34:11.049Z,24.00
2019-05-29T00:36:39.438Z,24.00
2019-05-29T00:39:08.660Z,24.00
2019-05-29T00:41:37.084Z,24.00
2019-05-29T00:44:05.339Z,24.00
2019-05-29T00:46:33.599Z,24.00
2019-05-29T00:49:02.174Z,24.00
2019-05-29T00:51:30.482Z,24.00
2019-05-29T00:53:58.837Z,24.00
2019-05-29T00:56:27.105Z,23.90
2019-05-29T00:58:55.379Z,23.90
2019-05-29T01:01:23.647Z,23.90
2019-05-29T01:03:52.174Z,23.90
2019-05-29T01:06:20.446Z,23.90
2019-05-29T01:08:48.886Z,23.90
2019-05-29T01:11:17.169Z,23.90
2019-05-29T01:13:45.485Z,23.90
2019-05-29T01:16:13.743Z,24.00
2019-05-29T01:18:42.016Z,24.00
2019-05-29T01:21:11.720Z,24.00
2019-05-29T01:23:40.374Z,24.00
2019-05-29T01:26:08.651Z,24.00
2019-05-29T01:28:36.984Z,24.00
2019-05-29T01:31:05.307Z,24.00
2019-05-29T01:33:33.576Z,23.90
2019-05-29T01:36:01.831Z,23.90
2019-05-29T01:38:30.119Z,23.90
2019-05-29T01:40:58.378Z,23.90
2019-05-29T01:43:27.658Z,23.90
2019-05-29T01:45:56.090Z,23.90
2019-05-29T01:48:24.386Z,24.00
2019-05-29T01:50:52.634Z,24.00
2019-05-29T01:53:21.753Z,24.00
2019-05-29T01:55:50.518Z,24.00
2019-05-29T01:58:20.328Z,24.00
2019-05-29T02:00:48.758Z,24.00
2019-05-29T02:03:17.762Z,24.00
2019-05-29T02:05:46.178Z,24.00
2019-05-29T02:08:14.440Z,24.00
2019-05-29T02:10:42.694Z,23.90
2019-05-29T02:13:10.967Z,23.90
2019-05-29T02:15:39.249Z,23.90
2019-05-29T02:18:07.515Z,23.90
2019-05-29T02:20:36.342Z,23.90
2019-05-29T02:23:04.618Z,23.90
2019-05-29T02:25:32.867Z,24.00
2019-05-29T02:28:01.132Z,23.90
2019-05-29T02:30:30.778Z,24.00
2019-05-29T02:32:59.383Z,24.00
2019-05-29T02:35:29.618Z,24.00
2019-05-29T02:37:57.650Z,24.00
2019-05-29T02:40:28.056Z,24.00
2019-05-29T02:42:56.651Z,24.00
2019-05-29T02:45:49.295Z,23.90
2019-05-29T02:47:55.507Z,23.90
2019-05-29T02:50:24.085Z,23.90
2019-05-29T02:52:52.430Z,23.90
2019-05-29T02:55:21.200Z,23.90
2019-05-29T02:57:51.012Z,23.90
2019-05-29T03:00:23.414Z,23.90
2019-05-29T03:02:51.792Z,23.90
2019-05-29T03:05:21.713Z,23.90
2019-05-29T03:07:50.040Z,23.90
2019-05-29T03:10:18.306Z,24.00
2019-05-29T03:12:46.563Z,23.90
2019-05-29T03:15:14.838Z,24.00
2019-05-29T03:17:43.099Z,23.90
2019-05-29T03:20:11.435Z,24.00
2019-05-29T03:22:39.707Z,23.90
2019-05-29T03:25:08.001Z,23.90
2019-05-29T03:27:38.057Z,23.90
2019-05-29T03:30:06.805Z,23.90
2019-05-29T03:32:45.574Z,23.90
2019-05-29T03:35:06.791Z,23.90
2019-05-29T03:37:35.140Z,23.90
2019-05-29T03:40:05.643Z,23.90
2019-05-29T03:42:34.478Z,23.90
2019-05-29T03:45:02.854Z,23.90
2019-05-29T03:47:33.017Z,23.90
2019-05-29T03:50:01.103Z,23.90
2019-05-29T03:52:30.253Z,23.90
2019-05-29T03:54:58.703Z,23.90
2019-05-29T03:57:27.708Z,24.00
2019-05-29T03:59:56.624Z,23.90
2019-05-29T04:02:26.643Z,23.90
2019-05-29T04:04:55.051Z,23.90
2019-05-29T04:07:23.299Z,23.90
2019-05-29T04:09:51.575Z,23.90
2019-05-29T04:12:19.838Z,23.80
2019-05-29T04:14:48.468Z,23.90
2019-05-29T04:17:16.819Z,23.90
2019-05-29T04:19:45.130Z,23.90
2019-05-29T04:22:13.402Z,23.90
2019-05-29T04:24:41.659Z,23.90
2019-05-29T04:27:12.628Z,23.90
2019-05-29T04:29:41.950Z,23.90
2019-05-29T04:32:10.212Z,24.00
2019-05-29T04:34:39.968Z,24.00
2019-05-29T04:37:08.390Z,24.00
2019-05-29T04:39:37.012Z,23.90
2019-05-29T04:42:05.912Z,23.90
2019-05-29T04:44:36.243Z,24.00
2019-05-29T04:47:11.117Z,23.90
2019-05-29T04:49:35.754Z,23.90
2019-05-29T04:52:04.151Z,24.00
2019-05-29T04:54:33.385Z,24.00
2019-05-29T04:57:01.750Z,24.00
2019-05-29T04:59:30.855Z,24.10
2019-05-29T05:01:59.266Z,24.10
2019-05-29T05:04:27.517Z,24.10
2019-05-29T05:06:55.804Z,24.10
2019-05-29T05:09:24.050Z,24.10
2019-05-29T05:11:52.495Z,24.10
2019-05-29T05:14:20.766Z,24.10
2019-05-29T05:16:49.031Z,24.10
2019-05-29T05:19:17.287Z,24.10
2019-05-29T05:21:45.555Z,24.10
2019-05-29T05:24:13.819Z,24.10
2019-05-29T05:26:42.093Z,24.10
2019-05-29T05:29:10.365Z,24.10
2019-05-29T05:31:38.695Z,24.20
2019-05-29T05:34:06.976Z,24.20
2019-05-29T05:36:35.238Z,24.20
2019-05-29T05:39:04.963Z,24.20
2019-05-29T05:41:33.239Z,24.20
2019-05-29T05:44:01.493Z,24.20
2019-05-29T05:46:30.865Z,24.20
2019-05-29T05:48:59.411Z,24.20
2019-05-29T05:51:27.957Z,24.20
2019-05-29T05:53:56.275Z,24.20
2019-05-29T05:56:24.527Z,24.20
2019-05-29T05:58:52.806Z,24.20
2019-05-29T06:01:21.087Z,24.20
2019-05-29T06:03:49.355Z,24.20
2019-05-29T06:06:17.618Z,24.20
2019-05-29T06:08:45.979Z,24.20
2019-05-29T06:11:14.230Z,24.20
2019-05-29T06:13:42.885Z,24.20
2019-05-29T06:16:11.255Z,24.20
2019-05-29T06:18:40.576Z,24.20
2019-05-29T06:21:08.959Z,24.20
2019-05-29T06:23:37.478Z,24.20
2019-05-29T06:26:05.743Z,24.20
2019-05-29T06:28:35.030Z,24.20
2019-05-29T06:31:03.411Z,24.20
2019-05-29T06:33:31.715Z,24.20
2019-05-29T06:35:59.997Z,24.20
2019-05-29T06:38:28.323Z,24.20
2019-05-29T06:40:56.608Z,24.20
2019-05-29T06:43:25.615Z,24.20
2019-05-29T06:45:54.638Z,24.20
2019-05-29T06:48:42.355Z,24.20
2019-05-29T06:50:58.714Z,24.20
2019-05-29T06:53:27.000Z,24.20
2019-05-29T06:55:56.657Z,24.20
2019-05-29T06:58:25.355Z,24.20
2019-05-29T07:00:53.623Z,24.20
2019-05-29T07:03:21.891Z,24.20
2019-05-29T07:05:52.523Z,24.20
2019-05-29T07:08:35.222Z,24.20
2019-05-29T07:10:50.180Z,24.20
2019-05-29T07:13:19.707Z,24.20
2019-05-29T07:15:47.971Z,24.20
2019-05-29T07:18:16.261Z,24.20
2019-05-29T07:20:44.895Z,24.20
2019-05-29T07:23:13.294Z,24.30
2019-05-29T07:25:42.883Z,24.50
2019-05-29T07:28:11.348Z,24.50
2019-05-29T07:30:42.738Z,24.60
2019-05-29T07:33:09.614Z,24.60
2019-05-29T07:35:37.890Z,24.60
2019-05-29T07:38:06.174Z,24.60
2019-05-29T07:40:35.972Z,24.50
2019-05-29T07:43:04.438Z,24.50
2019-05-29T07:45:32.715Z,24.50
2019-05-29T07:48:00.992Z,24.50
2019-05-29T07:50:29.283Z,24.50
2019-05-29T07:52:59.295Z,24.40
2019-05-29T07:55:27.701Z,24.40
2019-05-29T07:57:56.015Z,24.40
2019-05-29T08:00:34.729Z,24.40
2019-05-29T08:02:54.298Z,24.40
2019-05-29T08:05:22.562Z,24.40
2019-05-29T08:07:50.844Z,24.40
2019-05-29T08:10:19.531Z,24.40
2019-05-29T08:12:53.182Z,24.40
2019-05-29T08:15:17.887Z,24.40
2019-05-29T08:17:46.294Z,24.40
2019-05-29T08:20:15.088Z,24.40
2019-05-29T08:22:44.404Z,24.40
2019-05-29T08:25:13.091Z,24.30
2019-05-29T08:27:42.508Z,24.40
2019-05-29T08:30:10.991Z,24.30
2019-05-29T08:32:40.681Z,24.30
2019-05-29T08:35:09.097Z,24.30
2019-05-29T08:37:37.375Z,24.30
2019-05-29T08:40:08.866Z,24.30
2019-05-29T08:42:37.127Z,24.30
2019-05-29T08:45:06.843Z,24.30
2019-05-29T08:47:35.104Z,24.30
2019-05-29T08:50:17.211Z,24.30
2019-05-29T08:52:34.147Z,24.30
2019-05-29T08:55:02.408Z,24.30
2019-05-29T08:57:30.701Z,24.30
2019-05-29T08:59:58.985Z,24.30
2019-05-29T09:02:27.249Z,24.30
2019-05-29T09:04:55.522Z,24.30
2019-05-29T09:07:23.793Z,24.30
2019-05-29T09:09:53.239Z,24.30
2019-05-29T09:12:21.723Z,24.30
2019-05-29T09:14:49.979Z,24.30
2019-05-29T09:17:18.527Z,24.30
2019-05-29T09:19:46.975Z,24.30
2019-05-29T09:22:16.444Z,24.30
2019-05-29T09:24:45.191Z,24.30
2019-05-29T09:27:14.558Z,24.30
2019-05-29T09:29:43.645Z,24.30
2019-05-29T09:32:13.473Z,24.30
2019-05-29T09:34:42.255Z,24.30
2019-05-29T09:37:10.531Z,24.30
2019-05-29T09:39:38.784Z,24.30
2019-05-29T09:42:07.047Z,24.30
2019-05-29T09:44:39.235Z,24.30
2019-05-29T09:47:05.313Z,24.20
2019-05-29T09:49:33.607Z,24.20
2019-05-29T09:52:02.078Z,24.20
2019-05-29T09:54:30.507Z,24.20
2019-05-29T09:56:59.640Z,24.20
2019-05-29T09:59:28.836Z,24.20
2019-05-29T10:01:59.960Z,24.20
2019-05-29T10:04:28.374Z,24.20
2019-05-29T10:06:57.579Z,24.20
2019-05-29T10:09:26.328Z,24.20
2019-05-29T10:11:58.515Z,24.20
2019-05-29T10:14:24.752Z,24.20
2019-05-29T10:16:56.102Z,24.20
2019-05-29T10:19:23.020Z,24.20
2019-05-29T10:21:51.283Z,24.20
2019-05-29T10:24:19.566Z,24.20
2019-05-29T10:26:47.840Z,24.20
2019-05-29T10:29:16.245Z,24.20
2019-05-29T10:31:46.781Z,24.20
2019-05-29T10:34:14.559Z,24.20
2019-05-29T10:36:46.872Z,24.20
2019-05-29T10:39:13.146Z,24.20
2019-05-29T10:41:42.601Z,24.20
2019-05-29T10:44:12.836Z,24.20
2019-05-29T10:46:41.114Z,24.20
2019-05-29T10:49:09.379Z,24.20
2019-05-29T10:51:37.646Z,24.20
2019-05-29T10:54:05.940Z,24.30
2019-05-29T10:56:34.201Z,24.20
2019-05-29T10:59:02.459Z,24.20
2019-05-29T11:01:30.743Z,24.20
2019-05-29T11:03:59.121Z,24.20
2019-05-29T11:06:27.466Z,24.20
2019-05-29T11:08:56.272Z,24.20
2019-05-29T11:11:24.786Z,24.20
2019-05-29T11:13:53.045Z,24.20
2019-05-29T11:16:21.315Z,24.20
2019-05-29T11:18:49.576Z,24.20
2019-05-29T11:21:17.874Z,24.20
2019-05-29T11:23:46.191Z,24.20
2019-05-29T11:26:14.468Z,24.20
2019-05-29T11:28:42.747Z,24.30
2019-05-29T11:31:11.034Z,24.30
2019-05-29T11:33:39.363Z,24.30
2019-05-29T11:36:12.815Z,24.30
2019-05-29T11:38:37.616Z,24.40
2019-05-29T11:41:25.021Z,24.40
2019-05-29T11:43:37.490Z,24.40
2019-05-29T11:46:05.776Z,24.40
2019-05-29T11:48:34.036Z,24.40
2019-05-29T11:51:02.476Z,24.40
2019-05-29T11:53:30.873Z,24.40
2019-05-29T11:55:59.844Z,24.50
2019-05-29T11:58:31.499Z,24.50
2019-05-29T12:00:59.221Z,24.40
2019-05-29T12:03:27.623Z,24.40
2019-05-29T12:05:56.293Z,24.40
2019-05-29T12:08:25.877Z,24.40
2019-05-29T12:10:55.316Z,24.30
2019-05-29T12:13:23.724Z,24.30
2019-05-29T12:15:52.049Z,24.30
2019-05-29T12:18:24.358Z,24.30
2019-05-29T12:20:51.955Z,24.30
2019-05-29T12:23:26.512Z,24.30
2019-05-29T12:26:11.532Z,24.30
2019-05-29T12:28:20.907Z,24.30
2019-05-29T12:30:49.210Z,24.30
2019-05-29T12:33:17.534Z,24.30
2019-05-29T12:35:45.786Z,24.30
2019-05-29T12:38:14.082Z,24.30
2019-05-29T12:40:42.834Z,24.30
2019-05-29T12:43:26.027Z,24.30
2019-05-29T12:45:41.213Z,24.30
2019-05-29T12:48:13.299Z,24.30
2019-05-29T12:50:39.539Z,24.30
2019-05-29T12:53:08.119Z,24.30
2019-05-29T12:55:36.379Z,24.20
2019-05-29T12:58:04.716Z,24.30
2019-05-29T13:00:32.975Z,24.30
2019-05-29T13:03:02.928Z,24.30
2019-05-29T13:05:31.271Z,24.20
2019-05-29T13:08:00.822Z,24.20
2019-05-29T13:10:30.913Z,24.20
2019-05-29T13:13:04.807Z,24.20
2019-05-29T13:15:29.309Z,24.20
2019-05-29T13:18:02.459Z,24.20
2019-05-29T13:20:27.652Z,24.20
2019-05-29T13:22:57.461Z,24.20
2019-05-29T13:25:26.079Z,24.20
2019-05-29T13:27:57.313Z,24.30
2019-05-29T13:30:24.374Z,24.30
2019-05-29T13:32:52.721Z,24.30
2019-05-29T13:35:22.467Z,24.30
2019-05-29T13:37:50.946Z,24.30
2019-05-29T13:40:19.276Z,24.30
2019-05-29T13:42:47.615Z,24.30
2019-05-29T13:45:18.401Z,24.30
2019-05-29T13:47:46.879Z,24.30
2019-05-29T13:50:15.206Z,24.30
2019-05-29T13:52:43.486Z,24.30
2019-05-29T13:55:11.839Z,24.30
2019-05-29T13:57:40.376Z,24.30
2019-05-29T14:00:30.376Z,24.30
2019-05-29T14:02:43.254Z,24.30
2019-05-29T14:05:13.059Z,24.30
2019-05-29T14:07:41.679Z,24.30
2019-05-29T14:10:10.608Z,24.20
2019-05-29T14:12:40.396Z,24.20
2019-05-29T14:15:12.632Z,24.20
2019-05-29T14:17:41.667Z,24.20
2019-05-29T14:20:09.951Z,24.20
2019-05-29T14:22:38.387Z,24.20
2019-05-29T14:25:07.498Z,24.20
2019-05-29T14:27:36.000Z,24.20
2019-05-29T14:30:08.446Z,24.20
2019-05-29T14:32:36.465Z,24.20
2019-05-29T14:35:08.993Z,24.20
2019-05-29T14:37:37.367Z,24.20
2019-05-29T14:40:05.923Z,24.20
2019-05-29T14:42:34.331Z,24.20
2019-05-29T14:45:03.983Z,24.20
2019-05-29T14:47:32.707Z,24.20
2019-05-29T14:50:02.400Z,24.20
2019-05-29T14:52:30.811Z,24.20
2019-05-29T14:54:59.084Z,24.20
2019-05-29T14:57:27.446Z,24.20
2019-05-29T14:59:57.779Z,24.20
2019-05-29T15:02:26.592Z,24.20
2019-05-29T15:05:14.982Z,24.20
2019-05-29T15:07:43.501Z,24.20
2019-05-29T15:10:22.666Z,24.20
2019-05-29T15:12:42.438Z,24.20
2019-05-29T15:15:16.358Z,24.20
2019-05-29T15:17:44.123Z,24.20
2019-05-29T15:20:14.456Z,24.20
2019-05-29T15:22:42.875Z,24.20
2019-05-29T15:25:19.979Z,24.20
2019-05-29T15:27:42.343Z,24.20
2019-05-29T15:30:12.742Z,24.20
2019-05-29T15:32:41.169Z,24.20
2019-05-29T15:35:13.813Z,24.20
2019-05-29T15:37:39.660Z,24.20
2019-05-29T15:40:08.783Z,24.20
2019-05-29T15:42:37.362Z,24.20
2019-05-29T15:45:09.860Z,24.20
2019-05-29T15:47:38.295Z,24.20
2019-05-29T15:50:09.005Z,24.20
2019-05-29T15:52:37.559Z,24.20
2019-05-29T15:55:21.170Z,24.20
2019-05-29T15:57:37.120Z,24.20
2019-05-29T16:00:07.081Z,24.20
2019-05-29T16:02:35.392Z,24.20
2019-05-29T16:05:04.704Z,24.20
2019-05-29T16:07:33.036Z,24.20
2019-05-29T16:10:01.287Z,24.20
2019-05-29T16:12:31.033Z,24.20
2019-05-29T16:14:59.615Z,24.20
2019-05-29T16:17:27.915Z,24.20
2019-05-29T16:19:56.220Z,24.20
2019-05-29T16:22:24.491Z,24.20
2019-05-29T16:24:52.738Z,24.20
2019-05-29T16:27:22.293Z,24.20
2019-05-29T16:29:50.738Z,24.20
2019-05-29T16:32:20.323Z,24.20
2019-05-29T16:34:48.609Z,24.20
2019-05-29T16:37:17.375Z,24.20
2019-05-29T16:39:45.919Z,24.20
2019-05-29T16:42:14.213Z,24.20
2019-05-29T16:44:42.978Z,24.20
2019-05-29T16:47:12.458Z,24.20
2019-05-29T16:49:40.886Z,24.20
2019-05-29T16:52:09.183Z,24.20
2019-05-29T16:54:37.435Z,24.20
2019-05-29T16:57:05.874Z,24.20
2019-05-29T16:59:34.157Z,24.20
2019-05-29T17:02:02.411Z,24.20
2019-05-29T17:04:30.675Z,24.20
2019-05-29T17:06:58.943Z,24.20
2019-05-29T17:09:27.223Z,24.10
2019-05-29T17:11:55.482Z,24.20
2019-05-29T17:14:25.036Z,24.10
2019-05-29T17:16:53.486Z,24.10
2019-05-29T17:19:23.049Z,24.10
2019-05-29T17:21:51.623Z,24.20
2019-05-29T17:24:20.933Z,24.20
2019-05-29T17:26:49.333Z,24.20
2019-05-29T17:29:18.896Z,24.20
2019-05-29T17:31:47.219Z,24.20
2019-05-29T17:34:16.807Z,24.20
2019-05-29T17:36:45.254Z,24.20
2019-05-29T17:39:15.162Z,24.20
2019-05-29T17:41:43.606Z,24.20
2019-05-29T17:44:11.886Z,24.20
2019-05-29T17:46:40.135Z,24.20
2019-05-29T17:49:09.788Z,24.20
2019-05-29T17:51:38.490Z,24.20
2019-05-29T17:54:06.775Z,24.20
2019-05-29T17:56:36.987Z,24.30
2019-05-29T17:59:05.043Z,24.30
2019-05-29T18:01:33.380Z,24.30
2019-05-29T18:04:01.655Z,24.30
2019-05-29T18:06:30.019Z,24.30
2019-05-29T18:08:58.438Z,24.30
2019-05-29T18:11:27.664Z,24.30
2019-05-29T18:13:56.071Z,24.20
2019-05-29T18:16:25.556Z,24.20
2019-05-29T18:18:53.970Z,24.20
2019-05-29T18:21:23.519Z,24.20
2019-05-29T18:23:53.523Z,24.20
2019-05-29T18:26:22.164Z,24.20
2019-05-29T18:28:50.432Z,24.20
2019-05-29T18:31:18.685Z,24.20
2019-05-29T18:33:47.618Z,24.20
2019-05-29T18:36:15.975Z,24.20
2019-05-29T18:38:44.247Z,24.20
2019-05-29T18:41:12.530Z,24.20
2019-05-29T18:43:40.824Z,24.20
2019-05-29T18:46:09.078Z,24.20
2019-05-29T18:48:37.374Z,24.20
2019-05-29T18:51:05.744Z,24.20
2019-05-29T18:53:34.013Z,24.20
2019-05-29T18:56:02.283Z,24.20
2019-05-29T18:58:30.777Z,24.20
2019-05-29T19:00:59.617Z,24.20
2019-05-29T19:03:27.874Z,24.20
2019-05-29T19:05:56.134Z,24.20
2019-05-29T19:08:25.659Z,24.20
2019-05-29T19:10:55.402Z,24.20
2019-05-29T19:13:23.805Z,24.20
2019-05-29T19:15:52.210Z,24.20
2019-05-29T19:18:21.904Z,24.20
2019-05-29T19:20:50.235Z,24.20
2019-05-29T19:23:18.495Z,24.20
2019-05-29T19:25:46.767Z,24.20
2019-05-29T19:28:15.091Z,24.20
2019-05-29T19:30:43.394Z,24.20
2019-05-29T19:33:12.146Z,24.20
2019-05-29T19:35:40.446Z,24.20
2019-05-29T19:38:09.074Z,24.20
2019-05-29T19:40:38.981Z,24.20
2019-05-29T19:43:07.254Z,24.20
2019-05-29T19:45:35.531Z,24.20
2019-05-29T19:48:03.848Z,24.20
2019-05-29T19:50:32.899Z,24.20
2019-05-29T19:53:01.342Z,24.20
2019-05-29T19:55:32.909Z,24.20
2019-05-29T19:57:59.615Z,24.20
2019-05-29T20:00:28.124Z,24.20
2019-05-29T20:02:56.456Z,24.10
2019-05-29T20:05:24.815Z,24.20
2019-05-29T20:07:53.106Z,24.10
2019-05-29T20:10:21.379Z,24.20
2019-05-29T20:12:49.658Z,24.20
2019-05-29T20:15:17.929Z,24.10
2019-05-29T20:17:46.226Z,24.20
2019-05-29T20:20:14.503Z,24.20
2019-05-29T20:22:42.789Z,24.20
2019-05-29T20:25:13.612Z,24.20
2019-05-29T20:27:42.496Z,24.20
2019-05-29T20:30:18.567Z,24.10
2019-05-29T20:32:47.200Z,24.10
2019-05-29T20:35:16.317Z,24.10
2019-05-29T20:37:45.629Z,24.10
2019-05-29T20:40:13.895Z,24.10
2019-05-29T20:42:42.548Z,24.10
2019-05-29T20:45:10.894Z,24.20
2019-05-29T20:47:40.087Z,24.10
2019-05-29T20:50:08.757Z,24.10
2019-05-29T20:52:37.411Z,24.20
2019-05-29T20:55:05.851Z,24.20
2019-05-29T20:57:34.123Z,24.20
2019-05-29T21:00:02.379Z,24.10
2019-05-29T21:02:31.932Z,24.10
2019-05-29T21:05:00.413Z,24.10
2019-05-29T21:07:28.703Z,24.20
2019-05-29T21:09:57.006Z,24.10
2019-05-29T21:12:25.294Z,24.10
2019-05-29T21:14:55.264Z,24.10
2019-05-29T21:17:23.592Z,24.10
2019-05-29T21:19:51.936Z,24.10
2019-05-29T21:22:20.199Z,24.10
2019-05-29T21:24:59.583Z,24.00
2019-05-29T21:27:18.487Z,24.00
2019-05-29T21:29:46.745Z,24.00
2019-05-29T21:32:15.329Z,24.00
2019-05-29T21:34:43.972Z,24.00
2019-05-29T21:37:12.335Z,24.00
2019-05-29T21:39:40.591Z,24.00
2019-05-29T21:42:08.847Z,24.10
2019-05-29T21:44:37.149Z,24.00
2019-05-29T21:47:05.470Z,24.00
2019-05-29T21:49:33.759Z,24.00
2019-05-29T21:52:02.014Z,24.00
2019-05-29T21:54:30.278Z,24.00
2019-05-29T21:56:58.535Z,23.90
2019-05-29T21:59:26.807Z,23.90
2019-05-29T22:01:55.063Z,23.90
2019-05-29T22:04:23.350Z,23.90
2019-05-29T22:06:51.611Z,23.90
2019-05-29T22:09:19.883Z,23.90
2019-05-29T22:11:48.141Z,24.00
2019-05-29T22:14:16.414Z,24.00
2019-05-29T22:16:44.673Z,24.00
2019-05-29T22:19:12.938Z,24.00
2019-05-29T22:21:41.199Z,24.00
2019-05-29T22:24:09.468Z,23.90
2019-05-29T22:26:37.754Z,24.00
2019-05-29T22:29:18.040Z,24.00
2019-05-29T22:31:36.055Z,23.90
2019-05-29T22:34:04.328Z,23.90
2019-05-29T22:36:32.604Z,23.90
2019-05-29T22:39:01.789Z,23.90
2019-05-29T22:41:30.316Z,23.90
2019-05-29T22:43:59.724Z,23.90
2019-05-29T22:46:28.026Z,23.90
2019-05-29T22:48:56.325Z,23.90
2019-05-29T22:51:24.654Z,23.90
2019-05-29T22:53:53.960Z,24.00
2019-05-29T22:56:22.374Z,24.00
2019-05-29T22:58:51.895Z,24.00
2019-05-29T23:01:20.313Z,24.00
2019-05-29T23:03:48.589Z,24.00
2019-05-29T23:06:16.907Z,24.00
2019-05-29T23:08:45.167Z,23.90
2019-05-29T23:11:23.387Z,23.90
2019-05-29T23:13:52.251Z,23.90
2019-05-29T23:16:20.718Z,23.90
2019-05-29T23:18:49.048Z,23.90
2019-05-29T23:21:17.322Z,23.90
2019-05-29T23:23:45.579Z,23.90
2019-05-29T23:26:14.116Z,24.00
2019-05-29T23:28:42.495Z,24.00
2019-05-29T23:31:10.836Z,24.00
2019-05-29T23:33:39.492Z,24.00
2019-05-29T23:36:08.164Z,24.00
2019-05-29T23:38:36.442Z,24.00
2019-05-29T23:41:05.047Z,24.00
2019-05-29T23:43:33.320Z,23.90
2019-05-29T23:46:02.379Z,23.90
2019-05-29T23:48:31.083Z,23.90
2019-05-29T23:50:59.795Z,23.90
2019-05-29T23:53:28.073Z,23.90
2019-05-29T23:55:57.586Z,23.90
2019-05-29T23:58:26.555Z,23.90
